Time;durP1;ratioP1;P1;durP2;ratioP2;P2;SDS_P1;SDS_P2;PMS_P1;PMS_P2;Temp;Humidity;BMP_temperature;BMP_pressure;BME280_temperature;BME280_humidity;BME280_pressure;Samples;Min_cycle;Max_cycle;Signal;HPM_P1;HPM_P2
2022/11/28 00:01:36;;;;;;;25.42;15.35;;;;;;;8.14;100.00;96373.63;5062775;28;20076;-44
2022/11/28 00:04:09;;;;;;;24.65;16.08;;;;;;;7.69;100.00;96376.59;5061693;28;20503;-43
2022/11/28 00:06:40;;;;;;;25.38;15.55;;;;;;;8.40;100.00;96365.34;5055582;28;20087;-43
2022/11/28 00:09:08;;;;;;;27.67;15.85;;;;;;;8.24;100.00;96368.44;5065621;28;20504;-46
2022/11/28 00:11:39;;;;;;;31.63;18.25;;;;;;;7.94;100.00;96364.00;5063150;28;20068;-42
2022/11/28 00:14:07;;;;;;;25.05;16.17;;;;;;;8.08;100.00;96358.41;5053308;28;20519;-45
2022/11/28 00:16:36;;;;;;;26.83;16.45;;;;;;;7.90;100.00;96354.72;5056611;28;20092;-44
2022/11/28 00:19:05;;;;;;;28.27;17.45;;;;;;;7.97;100.00;96356.69;5058836;28;20087;-42
2022/11/28 00:21:35;;;;;;;24.60;14.30;;;;;;;7.91;100.00;96351.13;5062149;28;20088;-44
2022/11/28 00:24:04;;;;;;;28.42;17.23;;;;;;;7.74;100.00;96353.41;5061545;28;20079;-44
2022/11/28 00:26:35;;;;;;;27.33;17.02;;;;;;;8.46;100.00;96338.50;5064267;28;20083;-46
2022/11/28 00:29:04;;;;;;;28.75;18.17;;;;;;;8.14;100.00;96347.38;5065696;28;20075;-46
2022/11/28 00:31:34;;;;;;;30.48;17.48;;;;;;;7.94;100.00;96343.81;5055924;28;20548;-43
2022/11/28 00:34:03;;;;;;;29.80;17.15;;;;;;;7.89;100.00;96345.19;5062343;28;20476;-47
2022/11/28 00:36:31;;;;;;;30.48;18.17;;;;;;;7.95;100.00;96331.53;5065230;28;20115;-42
2022/11/28 00:39:01;;;;;;;32.38;19.52;;;;;;;7.98;100.00;96323.38;5062994;28;20103;-45
2022/11/28 00:41:32;;;;;;;30.13;18.23;;;;;;;8.15;100.00;96327.19;5060869;28;20106;-45
2022/11/28 00:44:00;;;;;;;31.67;19.08;;;;;;;8.29;100.00;96326.81;5061566;28;20121;-43
2022/11/28 00:46:29;;;;;;;29.73;17.15;;;;;;;8.32;100.00;96329.19;5066912;28;20464;-46
2022/11/28 00:48:58;;;;;;;29.08;17.70;;;;;;;8.59;100.00;96325.13;5065719;28;20087;-43
2022/11/28 00:51:27;;;;;;;29.20;17.55;;;;;;;8.75;100.00;96317.56;5058831;28;20111;-44
2022/11/28 00:53:57;;;;;;;32.90;18.90;;;;;;;8.53;100.00;96327.34;5069248;28;20067;-45
2022/11/28 00:56:29;;;;;;;31.83;17.85;;;;;;;8.86;100.00;96340.25;5066573;28;20080;-43
2022/11/28 00:58:58;;;;;;;31.65;18.75;;;;;;;9.14;100.00;96331.53;5068706;28;20529;-44
2022/11/28 01:01:28;;;;;;;31.40;18.38;;;;;;;9.25;100.00;96330.56;5069496;28;20539;-46
2022/11/28 01:03:58;;;;;;;32.67;18.67;;;;;;;9.01;100.00;96323.91;5068318;28;20079;-43
2022/11/28 01:06:29;;;;;;;34.20;19.08;;;;;;;8.49;100.00;96322.47;5065311;28;20171;-46
2022/11/28 01:08:58;;;;;;;34.05;19.27;;;;;;;8.62;100.00;96314.34;5073068;28;20097;-44
2022/11/28 01:11:29;;;;;;;34.58;19.95;;;;;;;8.67;100.00;96318.25;5060893;28;20075;-46
2022/11/28 01:13:57;;;;;;;;;;;;;;;8.53;100.00;96310.72;5066947;28;20084;-46
2022/11/28 01:16:25;;;;;;;34.55;19.60;;;;;;;8.20;100.00;96310.06;5063572;28;19966;-43
2022/11/28 01:18:54;;;;;;;33.88;19.67;;;;;;;7.99;100.00;96315.41;5068088;28;20671;-42
2022/11/28 01:21:23;;;;;;;34.10;19.45;;;;;;;8.12;100.00;96315.19;5068102;28;20064;-49
2022/11/28 01:23:51;;;;;;;35.60;20.95;;;;;;;7.99;100.00;96318.03;5069730;28;20068;-42
2022/11/28 01:26:21;;;;;;;30.35;18.02;;;;;;;8.42;100.00;96302.97;5065156;28;20080;-44
2022/11/28 01:28:51;;;;;;;34.17;19.77;;;;;;;8.50;100.00;96300.50;5064174;28;20083;-47
2022/11/28 01:31:22;;;;;;;35.20;20.10;;;;;;;8.54;100.00;96296.63;5065729;28;20076;-45
2022/11/28 01:33:51;;;;;;;33.03;19.63;;;;;;;8.84;100.00;96286.97;5062182;28;20075;-43
2022/11/28 01:36:20;;;;;;;34.50;20.45;;;;;;;8.65;100.00;96290.44;5063032;28;20076;-46
2022/11/28 01:38:49;;;;;;;33.70;20.15;;;;;;;8.40;100.00;96289.16;5066458;28;20071;-44
2022/11/28 01:41:20;;;;;;;36.08;20.90;;;;;;;8.26;100.00;96292.97;5068831;28;20095;-44
2022/11/28 01:44:02;;;;;;;33.60;20.73;;;;;;;8.25;100.00;96281.59;5064936;28;20064;-44
2022/11/28 01:46:31;;;;;;;35.92;19.58;;;;;;;8.24;100.00;96276.50;5063293;28;20064;-45
2022/11/28 01:49:03;;;;;;;30.90;19.45;;;;;;;8.34;100.00;96272.09;5062742;28;20083;-49
2022/11/28 01:51:32;;;;;;;33.58;20.25;;;;;;;8.02;100.00;96265.25;5072147;28;20099;-43
2022/11/28 01:54:01;;;;;;;34.08;20.38;;;;;;;8.35;100.00;96268.47;5069118;28;20072;-43
2022/11/28 01:56:33;;;;;;;34.83;20.45;;;;;;;8.44;100.00;96265.09;5065335;28;20079;-44
2022/11/28 01:59:04;;;;;;;38.88;20.60;;;;;;;8.17;100.00;96260.44;5069967;28;20083;-45
2022/11/28 02:01:33;;;;;;;36.63;20.20;;;;;;;8.31;100.00;96262.66;5064972;28;20080;-42
2022/11/28 02:04:03;;;;;;;35.97;21.08;;;;;;;8.47;100.00;96251.69;5064584;28;20072;-45
2022/11/28 02:06:32;;;;;;;;;;;;;;;8.73;100.00;96257.22;5061412;28;20084;-45
2022/11/28 02:09:00;;;;;;;38.40;20.65;;;;;;;8.62;100.00;96262.59;5065400;28;19964;-49
2022/11/28 02:12:00;;;;;;;36.83;20.23;;;;;;;8.49;100.00;96268.13;5065829;28;20091;-42
2022/11/28 02:14:42;;;;;;;36.95;21.35;;;;;;;9.06;100.00;96270.09;5063999;28;20083;-45
2022/11/28 02:17:16;;;;;;;38.63;20.65;;;;;;;9.21;100.00;96276.56;5065332;28;20500;-43
2022/11/28 02:20:12;;;;;;;31.75;19.38;;;;;;;9.15;100.00;96285.00;5062272;28;20079;-46
2022/11/28 02:22:50;;;;;;;33.10;20.00;;;;;;;9.37;100.00;96286.53;5065835;28;20107;-41
2022/11/28 02:25:31;;;;;;;36.88;19.23;;;;;;;9.41;100.00;96283.47;5061945;28;20076;-44
2022/11/28 02:28:32;;;;;;;31.25;19.33;;;;;;;9.48;100.00;96287.19;5057062;28;20080;-43
2022/11/28 02:31:03;;;;;;;;;;;;;;;9.61;100.00;96294.78;5062788;28;20083;-44
2022/11/28 02:33:34;;;;;;;35.22;19.63;;;;;;;9.65;100.00;96293.53;5063808;28;19970;-44
2022/11/28 02:36:09;;;;;;;33.80;19.25;;;;;;;9.75;100.00;96293.50;5074678;28;20511;-42
2022/11/28 02:38:46;;;;;;;32.97;19.27;;;;;;;9.76;100.00;96287.25;5064617;28;20064;-44
2022/11/28 02:41:24;;;;;;;33.60;20.38;;;;;;;9.55;100.00;96271.66;5061847;28;20067;-44
2022/11/28 02:43:55;;;;;;;33.55;18.75;;;;;;;9.30;100.00;96278.38;5063177;28;20449;-41
2022/11/28 02:46:31;;;;;;;29.02;18.27;;;;;;;9.21;100.00;96268.69;5065983;28;20083;-44
2022/11/28 02:49:04;;;;;;;31.00;18.42;;;;;;;8.86;100.00;96261.38;5064294;28;20091;-42
2022/11/28 02:51:35;;;;;;;29.20;17.77;;;;;;;8.99;100.00;96257.50;5068367;28;20095;-45
2022/11/28 02:54:06;;;;;;;29.20;18.75;;;;;;;8.35;100.00;96252.72;5064841;28;20076;-44
2022/11/28 02:56:34;;;;;;;30.20;18.67;;;;;;;8.05;100.00;96251.84;5062356;28;20089;-43
2022/11/28 02:59:02;;;;;;;29.55;17.73;;;;;;;8.56;100.00;96239.50;5073042;28;20602;-43
2022/11/28 03:01:33;;;;;;;28.88;17.52;;;;;;;8.09;100.00;96236.66;5066397;28;20083;-42
2022/11/28 03:04:13;;;;;;;28.13;18.92;;;;;;;7.96;100.00;96234.25;5059982;28;20076;-42
2022/11/28 03:06:49;;;;;;;31.88;18.13;;;;;;;7.82;100.00;96232.84;5063158;28;20527;-45
2022/11/28 03:09:31;;;;;;;28.58;17.10;;;;;;;8.24;100.00;96223.94;5054876;28;20512;-47
2022/11/28 03:12:10;;;;;;;27.85;17.23;;;;;;;8.18;100.00;96225.31;5062466;28;20436;-43
2022/11/28 03:14:49;;;;;;;29.65;16.67;;;;;;;8.09;100.00;96232.22;5065531;28;20045;-42
2022/11/28 03:17:24;;;;;;;25.67;16.33;;;;;;;7.67;100.00;96221.03;5061510;28;20507;-43
2022/11/28 03:20:01;;;;;;;29.70;18.15;;;;;;;8.27;100.00;96221.88;5064902;28;20103;-42
2022/11/28 03:22:34;;;;;;;32.38;18.42;;;;;;;8.33;100.00;96213.47;5067480;28;20063;-42
2022/11/28 03:25:10;;;;;;;30.40;18.13;;;;;;;8.33;100.00;96210.00;5064408;28;20091;-47
2022/11/28 03:27:42;;;;;;;30.33;17.55;;;;;;;8.14;100.00;96218.69;5064463;28;20079;-44
2022/11/28 03:30:15;;;;;;;33.05;17.88;;;;;;;8.30;100.00;96224.25;5057903;28;20084;-46
2022/11/28 03:32:45;;;;;;;29.60;17.88;;;;;;;8.70;100.00;96231.19;5055434;28;20533;-45
2022/11/28 03:35:18;;;;;;;32.63;17.55;;;;;;;8.86;100.00;96238.53;5059161;28;20085;-43
2022/11/28 03:37:49;;;;;;;29.42;17.52;;;;;;;8.75;100.00;96241.31;5063732;28;20079;-46
2022/11/28 03:40:22;;;;;;;30.83;17.65;;;;;;;9.10;100.00;96235.47;5061365;28;20100;-47
2022/11/28 03:42:58;;;;;;;30.30;18.17;;;;;;;9.19;100.00;96226.72;5061072;28;20544;-43
2022/11/28 03:45:29;;;;;;;28.55;17.60;;;;;;;9.03;100.00;96219.41;5058515;28;20071;-45
2022/11/28 03:48:00;;;;;;;27.48;17.17;;;;;;;8.87;100.00;96220.94;5063132;28;20086;-41
2022/11/28 03:50:34;;;;;;;27.58;16.83;;;;;;;8.92;100.00;96210.88;5069231;28;20075;-47
2022/11/28 03:53:03;;;;;;;29.33;17.88;;;;;;;8.73;100.00;96216.94;5060136;28;20088;-43
2022/11/28 03:55:36;;;;;;;28.95;17.42;;;;;;;8.43;100.00;96208.25;5064355;28;20080;-48
2022/11/28 03:58:07;;;;;;;31.48;17.88;;;;;;;8.30;100.00;96192.72;5064960;28;20076;-44
2022/11/28 04:00:41;;;;;;;29.70;17.65;;;;;;;7.81;100.00;96178.69;5064800;28;20094;-45
2022/11/28 04:03:11;;;;;;;30.40;17.00;;;;;;;7.38;100.00;96173.69;5062731;28;20080;-42
2022/11/28 04:05:42;;;;;;;;;;;;;;;7.56;100.00;96176.50;5065329;28;20079;-42
2022/11/28 04:08:14;;;;;;;29.05;17.80;;;;;;;7.27;100.00;96173.78;5067190;28;19971;-46
2022/11/28 04:10:44;;;;;;;36.53;21.17;;;;;;;7.34;100.00;96152.16;5062497;28;20088;-44
2022/11/28 04:13:18;;;;;;;32.40;18.60;;;;;;;7.24;100.00;96153.06;5064887;28;20095;-44
2022/11/28 04:15:48;;;;;;;31.88;18.60;;;;;;;7.46;100.00;96165.16;5067226;28;20479;-40
2022/11/28 04:18:18;;;;;;;;;;;;;;;7.61;100.00;96164.66;5063510;28;20502;-42
2022/11/28 04:20:51;;;;;;;34.28;18.60;;;;;;;7.41;100.00;96165.56;5061654;28;19967;-44
2022/11/28 04:23:20;;;;;;;34.05;19.92;;;;;;;7.44;100.00;96160.06;5073335;28;20091;-43
2022/11/28 04:25:52;;;;;;;33.17;17.95;;;;;;;7.53;100.00;96158.41;5068944;28;20068;-41
2022/11/28 04:28:22;;;;;;;33.83;18.90;;;;;;;8.22;100.00;96173.34;5066610;28;20085;-44
2022/11/28 04:30:50;;;;;;;;;;;;;;;8.63;100.00;96169.63;5075114;28;20523;-42
2022/11/28 04:33:20;;;;;;;31.38;17.58;;;;;;;8.49;100.00;96167.44;5070937;28;20462;-45
2022/11/28 04:35:52;;;;;;;30.90;18.08;;;;;;;8.21;100.00;96154.13;5079334;28;20091;-44
2022/11/28 04:38:21;;;;;;;31.35;17.30;;;;;;;8.01;100.00;96155.91;5070019;28;20088;-42
2022/11/28 04:40:52;;;;;;;37.15;21.90;;;;;;;7.87;100.00;96140.53;5068203;28;20089;-40
2022/11/28 04:43:23;;;;;;;35.03;18.00;;;;;;;7.89;100.00;96148.31;5073459;28;20083;-42
2022/11/28 04:45:55;;;;;;;39.20;20.05;;;;;;;8.01;100.00;96152.44;5063448;28;20785;-43
2022/11/28 04:48:23;;;;;;;36.03;20.98;;;;;;;8.05;100.00;96143.31;5066236;28;20482;-46
2022/11/28 04:51:05;;;;;;;34.05;20.20;;;;;;;7.97;100.00;96140.56;5068214;28;20087;-40
2022/11/28 04:53:35;;;;;;;35.17;19.90;;;;;;;7.88;100.00;96152.72;5075394;28;20092;-41
2022/11/28 04:56:05;;;;;;;;;;;;;;;8.23;100.00;96149.56;5063085;28;20080;-43
2022/11/28 04:58:35;;;;;;;34.80;18.40;;;;;;;8.43;100.00;96166.22;5066836;28;19971;-43
2022/11/28 05:01:06;;;;;;;32.38;19.27;;;;;;;8.81;100.00;96169.78;5070602;28;20060;-44
2022/11/28 05:03:34;;;;;;;37.22;20.25;;;;;;;8.36;100.00;96141.41;5068882;28;20087;-41
2022/11/28 05:06:11;;;;;;;34.25;20.00;;;;;;;7.57;100.00;96144.91;5067157;28;20072;-43
2022/11/28 05:08:41;;;;;;;35.47;18.73;;;;;;;8.21;100.00;96172.50;5064458;28;20099;-41
2022/11/28 05:11:09;;;;;;;34.15;19.23;;;;;;;8.68;100.00;96164.81;5062674;28;20087;-43
2022/11/28 05:13:37;;;;;;;32.33;18.77;;;;;;;8.61;100.00;96150.56;5067401;28;20083;-41
2022/11/28 05:16:06;;;;;;;40.38;19.38;;;;;;;8.54;100.00;96159.97;5062996;28;20085;-44
2022/11/28 05:18:35;;;;;;;35.58;19.60;;;;;;;8.84;100.00;96164.22;5060517;28;20093;-40
2022/11/28 05:21:05;;;;;;;36.42;20.25;;;;;;;8.61;100.00;96145.31;5062752;28;20151;-42
2022/11/28 05:23:35;;;;;;;31.35;18.73;;;;;;;8.44;100.00;96144.22;5056952;28;20570;-41
2022/11/28 05:26:06;;;;;;;31.88;18.60;;;;;;;8.04;100.00;96139.88;5082899;28;20083;-41
2022/11/28 05:28:34;;;;;;;35.22;18.88;;;;;;;7.79;100.00;96122.03;5073080;28;20083;-41
2022/11/28 05:31:03;;;;;;;32.60;18.15;;;;;;;8.47;100.00;96164.13;5078737;28;20095;-45
2022/11/28 05:33:32;;;;;;;32.90;17.48;;;;;;;8.03;100.00;96192.53;5070683;28;20087;-43
2022/11/28 05:36:03;;;;;;;31.03;17.33;;;;;;;8.31;100.00;96188.28;5059764;28;20061;-41
2022/11/28 05:38:38;;;;;;;34.45;17.85;;;;;;;7.85;100.00;96202.88;5070064;28;20095;-48
2022/11/28 05:41:06;;;;;;;33.67;18.63;;;;;;;8.28;100.00;96202.50;5073379;28;20095;-43
2022/11/28 05:43:35;;;;;;;32.92;19.25;;;;;;;8.14;100.00;96199.47;5089320;28;20493;-42
2022/11/28 05:46:05;;;;;;;32.15;18.33;;;;;;;8.52;100.00;96172.41;5078152;28;20091;-41
2022/11/28 05:48:33;;;;;;;34.33;18.65;;;;;;;8.63;100.00;96174.88;5084342;28;20087;-44
2022/11/28 05:51:03;;;;;;;34.72;20.00;;;;;;;8.51;100.00;96165.50;5068011;28;20079;-41
2022/11/28 05:53:32;;;;;;;30.90;17.98;;;;;;;8.53;100.00;96163.56;5077977;28;20084;-41
2022/11/28 05:56:06;;;;;;;33.55;18.83;;;;;;;8.24;100.00;96174.88;5071488;28;20080;-41
2022/11/28 05:58:34;;;;;;;30.92;18.15;;;;;;;8.53;100.00;96163.56;5070661;28;20076;-45
2022/11/28 06:01:09;;;;;;;33.08;18.35;;;;;;;8.62;100.00;96181.13;5074569;28;20126;-43
2022/11/28 06:03:38;;;;;;;33.35;19.70;;;;;;;8.46;100.00;96165.91;5079663;28;20096;-44
2022/11/28 06:06:11;;;;;;;30.95;17.67;;;;;;;8.41;100.00;96162.88;5075904;28;20063;-44
2022/11/28 06:08:39;;;;;;;36.60;19.67;;;;;;;8.56;100.00;96153.59;5079851;28;20076;-43
2022/11/28 06:11:09;;;;;;;31.13;18.40;;;;;;;8.68;100.00;96156.91;5083513;28;20071;-45
2022/11/28 06:13:37;;;;;;;33.45;19.60;;;;;;;8.72;100.00;96152.22;5081639;28;20084;-41
2022/11/28 06:16:07;;;;;;;34.92;19.90;;;;;;;8.78;100.00;96144.59;5084578;28;20072;-43
2022/11/28 06:18:36;;;;;;;37.42;20.73;;;;;;;8.75;100.00;96151.94;5074987;28;20087;-43
2022/11/28 06:21:05;;;;;;;34.42;20.00;;;;;;;8.68;100.00;96153.47;5082010;28;20075;-43
2022/11/28 06:23:34;;;;;;;33.63;19.58;;;;;;;8.71;100.00;96146.13;5074809;28;20162;-43
2022/11/28 06:26:05;;;;;;;36.90;19.95;;;;;;;8.71;100.00;96159.28;5063038;28;20071;-44
2022/11/28 06:28:35;;;;;;;38.33;21.73;;;;;;;8.78;100.00;96138.50;5071860;28;20676;-41
2022/11/28 06:31:04;;;;;;;33.47;20.17;;;;;;;8.76;100.00;96145.69;5083528;28;20079;-41
2022/11/28 06:33:32;;;;;;;33.22;18.58;;;;;;;8.39;100.00;96128.03;5069128;28;20554;-47
2022/11/28 06:36:01;;;;;;;31.58;18.40;;;;;;;8.00;100.00;96124.53;5076185;28;20087;-42
2022/11/28 06:38:30;;;;;;;32.67;18.35;;;;;;;8.43;100.00;96134.69;5070932;28;20072;-42
2022/11/28 06:40:59;;;;;;;32.78;19.58;;;;;;;7.97;100.00;96120.38;5085250;28;20083;-44
2022/11/28 06:43:27;;;;;;;32.65;19.15;;;;;;;8.13;100.00;96121.66;5085057;28;20535;-45
2022/11/28 06:45:57;;;;;;;34.00;19.48;;;;;;;8.52;100.00;96125.94;5082825;28;20072;-47
2022/11/28 06:48:25;;;;;;;35.70;21.33;;;;;;;8.40;100.00;96127.06;5077519;28;20324;-42
2022/11/28 06:50:54;;;;;;;35.00;19.83;;;;;;;8.20;100.00;96131.47;5071318;28;20071;-42
2022/11/28 06:53:22;;;;;;;33.75;19.75;;;;;;;8.61;100.00;96131.34;5074259;28;20060;-42
2022/11/28 06:55:57;;;;;;;34.70;19.23;;;;;;;8.31;100.00;96112.94;5081100;28;20090;-44
2022/11/28 06:58:25;;;;;;;32.22;18.98;;;;;;;7.65;100.00;96120.63;5065679;28;20078;-41
2022/11/28 07:00:53;;;;;;;31.98;18.33;;;;;;;7.27;100.00;96114.28;5069584;28;20468;-44
2022/11/28 07:03:23;;;;;;;31.42;18.00;;;;;;;7.43;100.00;96112.94;5076736;28;20072;-41
2022/11/28 07:05:52;;;;;;;32.40;19.73;;;;;;;7.41;100.00;96109.66;5080106;28;20102;-45
2022/11/28 07:08:20;;;;;;;32.20;18.83;;;;;;;7.41;100.00;96115.72;5085957;28;20076;-45
2022/11/28 07:10:49;;;;;;;34.95;17.73;;;;;;;7.98;100.00;96119.44;5076890;28;20082;-43
2022/11/28 07:13:17;;;;;;;31.10;18.17;;;;;;;7.70;100.00;96118.41;5073351;28;20088;-46
2022/11/28 07:15:48;;;;;;;33.03;18.67;;;;;;;7.26;100.00;96109.16;5070964;28;20103;-41
2022/11/28 07:18:17;;;;;;;34.20;18.80;;;;;;;8.13;100.00;96126.91;5077240;28;20537;-41
2022/11/28 07:20:46;;;;;;;33.83;19.30;;;;;;;7.93;100.00;96131.31;5079948;28;20547;-43
2022/11/28 07:23:14;;;;;;;35.63;18.48;;;;;;;8.55;100.00;96135.34;5076290;28;20072;-41
2022/11/28 07:25:43;;;;;;;33.58;18.58;;;;;;;8.78;100.00;96141.97;5074762;28;20067;-42
2022/11/28 07:28:11;;;;;;;32.15;18.10;;;;;;;9.08;100.00;96132.19;5070927;28;20076;-44
2022/11/28 07:30:40;;;;;;;33.97;18.73;;;;;;;8.90;100.00;96147.88;5077319;28;20083;-42
2022/11/28 07:33:08;;;;;;;34.03;19.40;;;;;;;9.08;100.00;96149.75;5083041;28;20090;-45
2022/11/28 07:35:36;;;;;;;35.45;18.38;;;;;;;9.18;100.00;96150.56;5069866;28;20083;-46
2022/11/28 07:38:06;;;;;;;31.83;18.48;;;;;;;9.30;100.00;96154.69;5069523;28;20432;-45
2022/11/28 07:40:34;;;;;;;32.67;18.77;;;;;;;9.18;100.00;96146.13;5075216;28;20076;-44
2022/11/28 07:43:03;;;;;;;33.42;18.13;;;;;;;8.70;100.00;96143.63;5065332;28;20068;-44
2022/11/28 07:45:31;;;;;;;32.88;18.35;;;;;;;9.31;100.00;96150.25;5076083;28;20520;-43
2022/11/28 07:48:19;;;;;;;32.13;18.30;;;;;;;8.54;100.00;96129.28;5078627;28;20083;-42
2022/11/28 07:50:47;;;;;;;30.05;18.25;;;;;;;8.51;100.00;96128.72;5074202;28;20507;-45
2022/11/28 07:53:17;;;;;;;31.65;16.80;;;;;;;9.28;100.00;96125.06;5074192;28;20072;-44
2022/11/28 07:55:45;;;;;;;29.38;17.50;;;;;;;8.88;100.00;96113.03;5077435;28;20084;-41
2022/11/28 07:58:14;;;;;;;26.70;17.17;;;;;;;8.51;100.00;96102.44;5069551;28;20064;-43
2022/11/28 08:00:42;;;;;;;30.33;17.23;;;;;;;8.56;100.00;96094.94;5072475;28;20515;-42
2022/11/28 08:03:10;;;;;;;30.42;18.05;;;;;;;7.92;100.00;96092.91;5086908;28;20523;-44
2022/11/28 08:05:39;;;;;;;33.45;18.15;;;;;;;7.76;100.00;96085.53;5077120;28;20076;-42
2022/11/28 08:08:07;;;;;;;28.13;15.88;;;;;;;8.00;100.00;96083.34;5077432;28;20068;-46
2022/11/28 08:10:37;;;;;;;28.15;16.90;;;;;;;7.67;100.00;96092.44;5080341;28;20562;-45
2022/11/28 08:13:05;;;;;;;31.70;18.52;;;;;;;7.79;100.00;96080.84;5075263;28;20088;-47
2022/11/28 08:15:33;;;;;;;27.63;16.70;;;;;;;8.17;100.00;96088.88;5083291;28;20088;-46
2022/11/28 08:18:02;;;;;;;25.73;15.40;;;;;;;8.93;100.00;96088.91;5073656;28;20090;-44
2022/11/28 08:20:30;;;;;;;26.27;15.57;;;;;;;9.07;100.00;96104.22;5071672;28;20114;-44
2022/11/28 08:22:59;;;;;;;24.65;15.75;;;;;;;9.15;100.00;96098.25;5071425;28;20083;-46
2022/11/28 08:25:27;;;;;;;24.30;14.95;;;;;;;9.33;100.00;96108.84;5077239;28;20082;-45
2022/11/28 08:27:57;;;;;;;25.20;15.88;;;;;;;9.08;100.00;96113.78;5082110;28;20083;-42
2022/11/28 08:30:25;;;;;;;23.23;15.20;;;;;;;9.36;100.00;96119.91;5081999;28;20575;-44
2022/11/28 08:32:53;;;;;;;25.23;14.82;;;;;;;8.79;100.00;96135.72;5078805;28;20605;-45
2022/11/28 08:35:22;;;;;;;25.08;13.85;;;;;;;8.93;100.00;96134.44;5069947;28;20459;-42
2022/11/28 08:37:50;;;;;;;23.70;14.57;;;;;;;9.30;100.00;96130.19;5072756;28;20094;-46
2022/11/28 08:40:19;;;;;;;24.33;13.95;;;;;;;8.99;100.00;96130.44;5079289;28;20083;-42
2022/11/28 08:42:47;;;;;;;29.55;16.75;;;;;;;9.42;100.00;96127.19;5086176;28;20106;-43
2022/11/28 08:45:17;;;;;;;25.48;15.70;;;;;;;8.89;100.00;96140.97;5080920;28;20080;-42
2022/11/28 08:47:45;;;;;;;25.57;15.00;;;;;;;8.79;100.00;96138.34;5076806;28;20071;-44
2022/11/28 08:50:14;;;;;;;25.73;14.98;;;;;;;9.09;100.00;96133.03;5065000;28;20068;-40
2022/11/28 08:52:42;;;;;;;26.65;16.35;;;;;;;9.77;100.00;96125.63;5075272;28;20087;-43
2022/11/28 08:55:10;;;;;;;26.33;16.55;;;;;;;9.52;100.00;96125.34;5077047;28;20076;-41
2022/11/28 08:57:38;;;;;;;24.63;15.90;;;;;;;9.92;100.00;96133.88;5083804;28;20087;-46
2022/11/28 09:00:08;;;;;;;27.80;17.10;;;;;;;9.86;100.00;96113.41;5085806;28;20084;-41
2022/11/28 09:02:37;;;;;;;26.10;15.77;;;;;;;10.32;100.00;96125.56;5077312;28;20075;-42
2022/11/28 09:05:06;;;;;;;25.53;17.07;;;;;;;10.65;100.00;96128.47;5069339;28;20082;-46
2022/11/28 09:07:35;;;;;;;26.25;16.30;;;;;;;10.83;100.00;96115.25;5072480;28;20082;-46
2022/11/28 09:10:04;;;;;;;22.33;15.48;;;;;;;9.93;100.00;96120.53;5072401;28;20141;-41
2022/11/28 09:12:32;;;;;;;25.38;16.30;;;;;;;9.94;100.00;96124.00;5084920;28;20090;-45
2022/11/28 09:15:00;;;;;;;25.58;15.75;;;;;;;9.58;100.00;96116.06;5079517;28;20087;-43
2022/11/28 09:17:28;;;;;;;26.05;16.30;;;;;;;10.26;100.00;96117.44;5075256;28;20071;-44
2022/11/28 09:19:58;;;;;;;24.98;15.23;;;;;;;10.68;100.00;96129.00;5071953;28;20499;-44
2022/11/28 09:22:28;;;;;;;25.50;16.58;;;;;;;10.69;100.00;96122.72;5058032;28;20084;-45
2022/11/28 09:38:59;;;;;;;28.20;19.63;;;;;;;9.70;100.00;96119.31;5098645;27;21273;-42
2022/11/28 09:41:32;;;;;;;21.52;15.70;;;;;;;9.55;100.00;96110.25;5083308;28;20579;-43
2022/11/28 09:44:03;;;;;;;21.20;15.65;;;;;;;10.00;100.00;96110.25;5084315;28;20075;-42
2022/11/28 09:46:34;;;;;;;21.58;15.55;;;;;;;9.76;100.00;96116.09;5083261;28;20095;-42
2022/11/28 09:49:03;;;;;;;;;;;;;;;10.23;100.00;96115.91;5082556;28;20084;-48
2022/11/28 09:51:36;;;;;;;20.05;13.85;;;;;;;9.34;100.00;96106.06;5077658;28;19974;-41
2022/11/28 09:54:13;;;;;;;21.90;14.48;;;;;;;9.79;100.00;96112.34;5082059;28;20084;-40
2022/11/28 09:56:41;;;;;;;18.27;13.52;;;;;;;9.90;100.00;96112.94;5080402;28;20087;-45
2022/11/28 09:59:17;;;;;;;20.58;13.73;;;;;;;10.24;100.00;96109.66;5083169;28;20086;-41
2022/11/28 10:01:50;;;;;;;20.02;13.65;;;;;;;10.10;100.00;96107.53;5081551;28;20087;-45
2022/11/28 10:04:23;;;;;;;19.90;13.98;;;;;;;10.42;100.00;96107.03;5079393;28;20091;-42
2022/11/28 10:06:58;;;;;;;23.30;15.95;;;;;;;9.88;100.00;96114.09;5083033;28;20091;-40
2022/11/28 10:09:33;;;;;;;20.20;13.40;;;;;;;9.92;100.00;96103.09;5083395;28;20593;-45
2022/11/28 10:12:11;;;;;;;18.63;13.07;;;;;;;9.78;100.00;96108.88;5081945;28;20091;-47
2022/11/28 10:14:52;;;;;;;21.83;13.50;;;;;;;10.18;100.00;96115.50;5078104;28;20468;-45
2022/11/28 10:17:28;;;;;;;19.88;14.05;;;;;;;9.95;100.00;96109.88;5080859;28;20091;-43
2022/11/28 10:19:58;;;;;;;19.27;14.02;;;;;;;9.37;100.00;96105.78;5083047;28;20091;-43
2022/11/28 10:22:35;;;;;;;17.83;13.38;;;;;;;9.96;100.00;96108.91;5082062;28;20083;-45
2022/11/28 10:25:10;;;;;;;19.42;13.95;;;;;;;10.34;100.00;96099.88;5083460;28;20621;-44
2022/11/28 10:27:39;;;;;;;21.08;13.50;;;;;;;10.64;100.00;96089.91;5082253;28;20384;-42
2022/11/28 10:30:11;;;;;;;20.45;13.45;;;;;;;10.42;100.00;96099.94;5082877;28;21026;-38
2022/11/28 10:32:42;;;;;;;19.60;13.50;;;;;;;10.52;100.00;96107.78;5080836;28;20448;-43
2022/11/28 10:35:21;;;;;;;17.50;13.05;;;;;;;10.90;100.00;96096.00;5070742;28;20076;-45
2022/11/28 10:37:55;;;;;;;19.33;13.20;;;;;;;11.05;100.00;96093.63;5079250;28;20076;-41
2022/11/28 10:40:34;;;;;;;19.63;12.82;;;;;;;11.24;100.00;96099.66;5067406;28;20651;-44
2022/11/28 10:43:06;;;;;;;17.80;12.82;;;;;;;11.23;100.00;96090.09;5066700;28;20488;-42
2022/11/28 10:45:43;;;;;;;17.52;12.25;;;;;;;11.47;100.00;96092.84;5064887;28;20081;-43
2022/11/28 10:48:15;;;;;;;19.15;12.57;;;;;;;11.21;100.00;96089.41;5069989;28;20076;-45
2022/11/28 10:51:12;;;;;;;18.77;13.35;;;;;;;11.17;100.00;96092.38;5067559;28;20084;-44
2022/11/28 10:53:45;;;;;;;17.23;12.15;;;;;;;11.54;100.00;96088.56;5068856;28;20554;-39
2022/11/28 10:56:21;;;;;;;17.23;12.15;;;;;;;11.68;100.00;96097.69;5071113;28;20109;-40
2022/11/28 10:58:55;;;;;;;18.05;12.73;;;;;;;11.82;100.00;96089.16;5069226;28;20758;-43
2022/11/28 11:01:36;;;;;;;18.45;12.32;;;;;;;12.05;100.00;96091.22;5070395;28;20479;-37
2022/11/28 11:04:05;;;;;;;17.70;11.82;;;;;;;11.64;100.00;96091.91;5067209;28;20083;-41
2022/11/28 11:06:33;;;;;;;16.48;11.30;;;;;;;11.73;100.00;96089.28;5067922;28;20095;-40
2022/11/28 11:09:14;;;;;;;18.38;12.05;;;;;;;11.04;100.00;96085.88;5066381;28;20072;-44
2022/11/28 11:11:50;;;;;;;14.32;11.23;;;;;;;11.20;100.00;96087.78;5064185;28;20084;-41
2022/11/28 11:14:33;;;;;;;17.17;11.77;;;;;;;11.66;100.00;96078.53;5067852;28;20083;-45
2022/11/28 11:17:01;;;;;;;18.67;12.50;;;;;;;11.69;100.00;96083.50;5065244;28;20562;-42
2022/11/28 11:19:31;;;;;;;16.02;11.27;;;;;;;11.86;100.00;96085.22;5067678;28;20072;-43
2022/11/28 11:22:01;;;;;;;16.90;11.95;;;;;;;11.44;100.00;96087.06;5068621;28;20084;-47
2022/11/28 11:24:29;;;;;;;;;;;;;;;11.85;100.00;96085.41;5065861;28;20460;-41
2022/11/28 11:27:05;;;;;;;16.02;11.77;;;;;;;12.10;100.00;96087.09;5068071;28;19955;-46
2022/11/28 11:29:35;;;;;;;17.60;11.82;;;;;;;12.09;100.00;96084.63;5065060;28;20459;-44
2022/11/28 11:32:05;;;;;;;15.85;11.05;;;;;;;12.14;100.00;96084.94;5067765;28;20067;-41
2022/11/28 11:34:38;;;;;;;18.02;11.63;;;;;;;12.30;100.00;96081.50;5069325;28;20084;-40
2022/11/28 11:37:21;;;;;;;15.57;11.60;;;;;;;12.28;100.00;96076.34;5067745;28;20617;-41
2022/11/28 11:39:51;;;;;;;17.48;10.80;;;;;;;11.87;100.00;96086.03;5065886;28;20116;-44
2022/11/28 11:42:22;;;;;;;18.90;11.10;;;;;;;12.21;100.00;96085.13;5064944;28;20079;-41
2022/11/28 11:44:50;;;;;;;13.68;10.82;;;;;;;12.27;100.00;96084.47;5062419;28;20098;-41
2022/11/28 11:47:19;;;;;;;18.40;12.25;;;;;;;12.25;100.00;96084.66;5068671;28;20066;-40
2022/11/28 11:49:48;;;;;;;15.65;12.10;;;;;;;12.30;100.00;96081.50;5067618;28;20087;-44
2022/11/28 11:52:23;;;;;;;15.88;11.77;;;;;;;12.19;100.00;96080.00;5063321;28;20462;-41